sensor_id;sensor_type;location;lat;lon;timestamp;noise_LAeq;noise_LA_min;noise_LA_max;noise_LA01;noise_LA95
66463;Laerm;56827;52.178;4.500;2023-07-29T00:00:02;31.07;29.57;33.57;;
66463;Laerm;56827;52.178;4.500;2023-07-29T00:00:13;31.53;29.93;39.01;;
66463;Laerm;56827;52.178;4.500;2023-07-29T00:00:23;31.68;29.82;36.84;;
66463;Laerm;56827;52.178;4.500;2023-07-29T00:00:33;31.66;30.26;33.59;;
66463;Laerm;56827;52.178;4.500;2023-07-29T00:00:43;32.14;30.32;34.88;;
66463;Laerm;56827;52.178;4.500;2023-07-29T00:00:54;31.68;30.04;33.81;;
66463;Laerm;56827;52.178;4.500;2023-07-29T00:01:05;32.68;30.36;44.67;;
66463;Laerm;56827;52.178;4.500;2023-07-29T00:01:16;33.41;31.86;35.46;;
66463;Laerm;56827;52.178;4.500;2023-07-29T00:01:26;42.77;34.59;44.91;;
66463;Laerm;56827;52.178;4.500;2023-07-29T00:01:36;39.78;36.19;43.24;;
66463;Laerm;56827;52.178;4.500;2023-07-29T00:01:46;36.75;34.01;40.88;;
66463;Laerm;56827;52.178;4.500;2023-07-29T00:01:56;39.23;36.11;40.70;;
66463;Laerm;56827;52.178;4.500;2023-07-29T00:02:07;36.78;33.91;44.79;;
66463;Laerm;56827;52.178;4.500;2023-07-29T00:02:17;35.04;31.78;43.56;;
66463;Laerm;56827;52.178;4.500;2023-07-29T00:02:27;32.21;29.81;40.06;;
66463;Laerm;56827;52.178;4.500;2023-07-29T00:02:40;31.16;29.74;32.85;;
66463;Laerm;56827;52.178;4.500;2023-07-29T00:02:51;31.90;30.33;34.18;;
66463;Laerm;56827;52.178;4.500;2023-07-29T00:03:01;33.23;30.77;36.92;;
66463;Laerm;56827;52.178;4.500;2023-07-29T00:03:11;32.98;31.09;34.96;;
66463;Laerm;56827;52.178;4.500;2023-07-29T00:03:21;32.23;30.12;35.28;;
66463;Laerm;56827;52.178;4.500;2023-07-29T00:03:32;31.49;30.06;34.02;;
66463;Laerm;56827;52.178;4.500;2023-07-29T00:03:42;31.74;30.50;34.00;;
66463;Laerm;56827;52.178;4.500;2023-07-29T00:03:52;31.24;29.76;33.35;;
66463;Laerm;56827;52.178;4.500;2023-07-29T00:04:02;32.52;30.21;35.72;;
66463;Laerm;56827;52.178;4.500;2023-07-29T00:04:13;32.00;30.43;34.06;;
66463;Laerm;56827;52.178;4.500;2023-07-29T00:04:23;32.74;31.16;34.74;;
66463;Laerm;56827;52.178;4.500;2023-07-29T00:04:33;33.42;30.81;36.48;;
66463;Laerm;56827;52.178;4.500;2023-07-29T00:04:43;33.38;30.33;35.70;;
66463;Laerm;56827;52.178;4.500;2023-07-29T00:04:54;33.65;30.45;36.54;;
66463;Laerm;56827;52.178;4.500;2023-07-29T00:05:04;32.20;30.47;34.38;;
66463;Laerm;56827;52.178;4.500;2023-07-29T00:05:14;33.47;31.75;35.46;;
66463;Laerm;56827;52.178;4.500;2023-07-29T00:05:25;39.71;31.63;45.47;;
66463;Laerm;56827;52.178;4.500;2023-07-29T00:05:36;43.91;42.09;45.17;;
66463;Laerm;56827;52.178;4.500;2023-07-29T00:05:47;40.01;33.22;44.22;;
66463;Laerm;56827;52.178;4.500;2023-07-29T00:05:57;33.02;31.29;37.09;;
66463;Laerm;56827;52.178;4.500;2023-07-29T00:06:09;40.94;32.05;45.61;;
66463;Laerm;56827;52.178;4.500;2023-07-29T00:06:19;38.63;34.82;45.36;;
66463;Laerm;56827;52.178;4.500;2023-07-29T00:06:29;36.93;32.50;39.59;;
66463;Laerm;56827;52.178;4.500;2023-07-29T00:06:39;32.60;31.55;34.38;;
66463;Laerm;56827;52.178;4.500;2023-07-29T00:06:50;31.99;30.47;34.69;;
66463;Laerm;56827;52.178;4.500;2023-07-29T00:07:00;31.99;30.20;33.90;;
66463;Laerm;56827;52.178;4.500;2023-07-29T00:07:10;31.16;29.64;33.14;;
66463;Laerm;56827;52.178;4.500;2023-07-29T00:07:20;32.16;30.34;34.42;;
66463;Laerm;56827;52.178;4.500;2023-07-29T00:07:31;34.25;32.38;36.12;;
66463;Laerm;56827;52.178;4.500;2023-07-29T00:07:41;39.95;35.10;42.82;;
66463;Laerm;56827;52.178;4.500;2023-07-29T00:07:51;39.32;34.79;43.44;;
66463;Laerm;56827;52.178;4.500;2023-07-29T00:08:01;35.21;32.35;39.04;;
66463;Laerm;56827;52.178;4.500;2023-07-29T00:08:12;31.59;30.03;34.83;;
66463;Laerm;56827;52.178;4.500;2023-07-29T00:08:22;31.23;29.87;33.17;;
66463;Laerm;56827;52.178;4.500;2023-07-29T00:08:32;31.55;30.06;33.96;;
66463;Laerm;56827;52.178;4.500;2023-07-29T00:08:42;31.49;30.21;33.77;;
66463;Laerm;56827;52.178;4.500;2023-07-29T00:08:53;31.99;30.19;34.17;;
66463;Laerm;56827;52.178;4.500;2023-07-29T00:09:05;31.76;30.37;33.26;;
66463;Laerm;56827;52.178;4.500;2023-07-29T00:09:16;32.83;30.59;34.80;;
66463;Laerm;56827;52.178;4.500;2023-07-29T00:09:26;31.68;30.24;33.23;;
66463;Laerm;56827;52.178;4.500;2023-07-29T00:09:36;32.42;29.61;36.92;;
66463;Laerm;56827;52.178;4.500;2023-07-29T00:09:48;36.96;32.43;43.28;;
66463;Laerm;56827;52.178;4.500;2023-07-29T00:09:58;34.76;30.28;45.48;;
66463;Laerm;56827;52.178;4.500;2023-07-29T00:10:08;32.10;30.59;34.00;;
66463;Laerm;56827;52.178;4.500;2023-07-29T00:10:19;31.85;30.48;33.89;;
66463;Laerm;56827;52.178;4.500;2023-07-29T00:10:30;35.29;31.37;37.86;;
66463;Laerm;56827;52.178;4.500;2023-07-29T00:10:41;35.11;30.71;39.25;;
66463;Laerm;56827;52.178;4.500;2023-07-29T00:10:51;37.04;30.86;40.35;;
66463;Laerm;56827;52.178;4.500;2023-07-29T00:11:02;37.51;34.27;40.51;;
66463;Laerm;56827;52.178;4.500;2023-07-29T00:11:12;36.13;33.76;39.61;;
66463;Laerm;56827;52.178;4.500;2023-07-29T00:11:22;36.87;33.66;39.46;;
66463;Laerm;56827;52.178;4.500;2023-07-29T00:11:32;36.58;31.91;39.75;;
66463;Laerm;56827;52.178;4.500;2023-07-29T00:11:43;36.76;34.20;39.69;;
66463;Laerm;56827;52.178;4.500;2023-07-29T00:11:54;35.21;31.97;37.41;;
66463;Laerm;56827;52.178;4.500;2023-07-29T00:12:04;32.61;30.99;34.79;;
66463;Laerm;56827;52.178;4.500;2023-07-29T00:12:14;35.52;31.18;38.97;;
66463;Laerm;56827;52.178;4.500;2023-07-29T00:12:24;34.39;32.30;36.87;;
66463;Laerm;56827;52.178;4.500;2023-07-29T00:12:35;35.73;33.17;38.11;;
66463;Laerm;56827;52.178;4.500;2023-07-29T00:12:45;35.04;32.04;37.88;;
66463;Laerm;56827;52.178;4.500;2023-07-29T00:12:55;34.00;31.97;36.55;;
66463;Laerm;56827;52.178;4.500;2023-07-29T00:13:05;33.38;30.79;42.13;;
66463;Laerm;56827;52.178;4.500;2023-07-29T00:13:16;35.99;30.29;46.69;;
66463;Laerm;56827;52.178;4.500;2023-07-29T00:13:26;32.21;29.47;40.48;;
66463;Laerm;56827;52.178;4.500;2023-07-29T00:13:36;31.50;29.97;33.41;;
66463;Laerm;56827;52.178;4.500;2023-07-29T00:13:46;32.75;30.24;36.71;;
66463;Laerm;56827;52.178;4.500;2023-07-29T00:13:57;33.18;31.22;34.96;;
66463;Laerm;56827;52.178;4.500;2023-07-29T00:14:07;33.86;31.27;36.34;;
66463;Laerm;56827;52.178;4.500;2023-07-29T00:14:17;35.74;32.24;39.91;;
66463;Laerm;56827;52.178;4.500;2023-07-29T00:14:28;33.48;30.59;36.53;;
66463;Laerm;56827;52.178;4.500;2023-07-29T00:14:38;32.19;29.82;35.44;;
66463;Laerm;56827;52.178;4.500;2023-07-29T00:14:48;31.46;29.73;33.29;;
66463;Laerm;56827;52.178;4.500;2023-07-29T00:14:58;31.45;30.18;33.73;;
66463;Laerm;56827;52.178;4.500;2023-07-29T00:15:09;30.76;29.47;33.24;;
66463;Laerm;56827;52.178;4.500;2023-07-29T00:15:19;31.07;29.87;33.39;;
66463;Laerm;56827;52.178;4.500;2023-07-29T00:15:29;31.04;29.86;33.31;;
66463;Laerm;56827;52.178;4.500;2023-07-29T00:15:39;32.22;29.76;34.92;;
66463;Laerm;56827;52.178;4.500;2023-07-29T00:15:50;31.91;30.41;34.14;;
66463;Laerm;56827;52.178;4.500;2023-07-29T00:16:00;32.74;30.60;39.38;;
66463;Laerm;56827;52.178;4.500;2023-07-29T00:16:10;32.69;30.54;36.29;;
66463;Laerm;56827;52.178;4.500;2023-07-29T00:16:20;33.36;30.37;36.00;;
66463;Laerm;56827;52.178;4.500;2023-07-29T00:16:33;32.59;29.63;36.12;;
66463;Laerm;56827;52.178;4.500;2023-07-29T00:16:43;31.06;29.79;34.61;;
66463;Laerm;56827;52.178;4.500;2023-07-29T00:16:54;31.54;30.02;34.96;;
66463;Laerm;56827;52.178;4.500;2023-07-29T00:17:04;36.60;32.33;39.96;;
66463;Laerm;56827;52.178;4.500;2023-07-29T00:17:14;35.14;33.23;37.80;;
66463;Laerm;56827;52.178;4.500;2023-07-29T00:17:24;34.97;30.96;37.03;;
66463;Laerm;56827;52.178;4.500;2023-07-29T00:17:35;31.71;29.96;33.75;;
66463;Laerm;56827;52.178;4.500;2023-07-29T00:17:45;31.46;29.71;33.71;;
66463;Laerm;56827;52.178;4.500;2023-07-29T00:17:55;30.94;29.83;33.28;;
66463;Laerm;56827;52.178;4.500;2023-07-29T00:18:05;32.00;30.26;34.32;;
66463;Laerm;56827;52.178;4.500;2023-07-29T00:18:15;34.84;31.43;37.45;;
66463;Laerm;56827;52.178;4.500;2023-07-29T00:18:26;31.49;30.18;34.72;;
66463;Laerm;56827;52.178;4.500;2023-07-29T00:18:37;31.26;29.35;33.32;;
66463;Laerm;56827;52.178;4.500;2023-07-29T00:18:48;32.32;29.69;34.64;;
66463;Laerm;56827;52.178;4.500;2023-07-29T00:18:58;33.79;30.67;36.60;;
66463;Laerm;56827;52.178;4.500;2023-07-29T00:19:08;31.00;29.68;33.10;;
66463;Laerm;56827;52.178;4.500;2023-07-29T00:19:18;30.72;29.28;33.29;;
66463;Laerm;56827;52.178;4.500;2023-07-29T00:19:30;30.79;29.71;32.96;;
66463;Laerm;56827;52.178;4.500;2023-07-29T00:19:40;30.90;29.22;32.89;;
66463;Laerm;56827;52.178;4.500;2023-07-29T00:19:50;31.57;29.77;33.85;;
66463;Laerm;56827;52.178;4.500;2023-07-29T00:20:00;33.60;31.65;35.64;;
66463;Laerm;56827;52.178;4.500;2023-07-29T00:20:11;32.52;30.35;35.07;;
66463;Laerm;56827;52.178;4.500;2023-07-29T00:20:21;31.02;29.23;33.10;;
66463;Laerm;56827;52.178;4.500;2023-07-29T00:20:31;31.18;29.67;33.23;;
66463;Laerm;56827;52.178;4.500;2023-07-29T00:20:41;30.83;29.22;37.51;;
66463;Laerm;56827;52.178;4.500;2023-07-29T00:20:52;31.03;29.40;34.00;;
66463;Laerm;56827;52.178;4.500;2023-07-29T00:21:02;30.82;29.33;32.25;;
66463;Laerm;56827;52.178;4.500;2023-07-29T00:21:12;33.26;30.88;35.61;;
66463;Laerm;56827;52.178;4.500;2023-07-29T00:21:23;32.02;29.86;33.90;;
66463;Laerm;56827;52.178;4.500;2023-07-29T00:21:33;30.94;29.38;33.88;;
66463;Laerm;56827;52.178;4.500;2023-07-29T00:21:43;31.43;29.77;37.59;;
66463;Laerm;56827;52.178;4.500;2023-07-29T00:21:54;31.62;29.47;33.94;;
66463;Laerm;56827;52.178;4.500;2023-07-29T00:22:04;30.59;29.33;33.17;;
66463;Laerm;56827;52.178;4.500;2023-07-29T00:22:14;30.44;29.25;32.32;;
66463;Laerm;56827;52.178;4.500;2023-07-29T00:22:24;30.66;29.42;32.38;;
66463;Laerm;56827;52.178;4.500;2023-07-29T00:22:35;31.00;29.38;32.59;;
66463;Laerm;56827;52.178;4.500;2023-07-29T00:22:45;30.43;29.16;32.60;;
66463;Laerm;56827;52.178;4.500;2023-07-29T00:22:55;30.33;28.90;35.61;;
66463;Laerm;56827;52.178;4.500;2023-07-29T00:23:06;31.73;29.62;36.66;;
66463;Laerm;56827;52.178;4.500;2023-07-29T00:23:17;30.94;29.50;32.75;;
66463;Laerm;56827;52.178;4.500;2023-07-29T00:23:29;30.50;29.40;33.18;;
66463;Laerm;56827;52.178;4.500;2023-07-29T00:23:39;31.06;29.15;35.15;;
66463;Laerm;56827;52.178;4.500;2023-07-29T00:23:49;30.46;28.73;32.76;;
66463;Laerm;56827;52.178;4.500;2023-07-29T00:23:59;30.90;29.53;33.50;;
66463;Laerm;56827;52.178;4.500;2023-07-29T00:24:11;31.25;29.76;33.70;;
66463;Laerm;56827;52.178;4.500;2023-07-29T00:24:21;31.12;29.56;33.96;;
66463;Laerm;56827;52.178;4.500;2023-07-29T00:24:31;31.18;29.53;33.89;;
66463;Laerm;56827;52.178;4.500;2023-07-29T00:24:41;31.99;30.09;34.72;;
66463;Laerm;56827;52.178;4.500;2023-07-29T00:24:52;31.77;30.00;35.44;;
66463;Laerm;56827;52.178;4.500;2023-07-29T00:25:05;35.65;29.99;40.37;;
66463;Laerm;56827;52.178;4.500;2023-07-29T00:25:15;36.13;34.24;39.35;;
66463;Laerm;56827;52.178;4.500;2023-07-29T00:25:26;32.88;31.20;35.64;;
66463;Laerm;56827;52.178;4.500;2023-07-29T00:25:36;31.84;30.12;33.99;;
66463;Laerm;56827;52.178;4.500;2023-07-29T00:25:46;30.98;29.61;35.46;;
66463;Laerm;56827;52.178;4.500;2023-07-29T00:25:56;31.03;29.51;33.34;;
66463;Laerm;56827;52.178;4.500;2023-07-29T00:26:06;30.93;29.39;33.08;;
66463;Laerm;56827;52.178;4.500;2023-07-29T00:26:17;32.34;30.40;37.64;;
66463;Laerm;56827;52.178;4.500;2023-07-29T00:26:27;32.72;30.85;35.01;;
66463;Laerm;56827;52.178;4.500;2023-07-29T00:26:39;32.21;30.00;34.63;;
66463;Laerm;56827;52.178;4.500;2023-07-29T00:26:49;30.77;29.53;32.73;;
66463;Laerm;56827;52.178;4.500;2023-07-29T00:26:59;30.80;29.15;33.63;;
66463;Laerm;56827;52.178;4.500;2023-07-29T00:27:09;30.70;29.25;33.01;;
66463;Laerm;56827;52.178;4.500;2023-07-29T00:27:19;30.51;29.31;33.10;;
66463;Laerm;56827;52.178;4.500;2023-07-29T00:27:30;30.42;29.07;32.91;;
66463;Laerm;56827;52.178;4.500;2023-07-29T00:27:40;30.52;29.39;32.59;;
66463;Laerm;56827;52.178;4.500;2023-07-29T00:27:50;30.55;29.12;33.10;;
66463;Laerm;56827;52.178;4.500;2023-07-29T00:28:00;31.13;29.65;33.05;;
66463;Laerm;56827;52.178;4.500;2023-07-29T00:28:11;30.68;29.01;32.65;;
66463;Laerm;56827;52.178;4.500;2023-07-29T00:28:21;30.37;29.07;32.63;;
66463;Laerm;56827;52.178;4.500;2023-07-29T00:28:32;32.15;29.35;35.05;;
66463;Laerm;56827;52.178;4.500;2023-07-29T00:28:42;33.10;29.62;41.75;;
66463;Laerm;56827;52.178;4.500;2023-07-29T00:28:52;33.37;29.83;35.80;;
66463;Laerm;56827;52.178;4.500;2023-07-29T00:29:02;31.86;29.48;35.25;;
66463;Laerm;56827;52.178;4.500;2023-07-29T00:29:13;37.92;29.38;42.24;;
66463;Laerm;56827;52.178;4.500;2023-07-29T00:29:23;37.88;35.44;40.18;;
66463;Laerm;56827;52.178;4.500;2023-07-29T00:29:33;33.62;30.28;37.46;;
66463;Laerm;56827;52.178;4.500;2023-07-29T00:29:43;31.60;30.28;33.75;;
66463;Laerm;56827;52.178;4.500;2023-07-29T00:29:54;31.05;29.45;33.11;;
66463;Laerm;56827;52.178;4.500;2023-07-29T00:30:04;31.20;29.66;33.43;;
66463;Laerm;56827;52.178;4.500;2023-07-29T00:30:14;31.46;29.69;33.64;;
66463;Laerm;56827;52.178;4.500;2023-07-29T00:30:25;32.31;30.65;34.54;;
66463;Laerm;56827;52.178;4.500;2023-07-29T00:30:35;33.89;30.49;40.80;;
66463;Laerm;56827;52.178;4.500;2023-07-29T00:30:45;31.61;30.10;34.59;;
66463;Laerm;56827;52.178;4.500;2023-07-29T00:30:55;31.65;30.34;34.36;;
66463;Laerm;56827;52.178;4.500;2023-07-29T00:31:06;32.08;30.74;33.79;;
66463;Laerm;56827;52.178;4.500;2023-07-29T00:31:16;32.27;30.50;33.70;;
66463;Laerm;56827;52.178;4.500;2023-07-29T00:31:26;38.97;32.00;41.87;;
66463;Laerm;56827;52.178;4.500;2023-07-29T00:31:36;36.79;33.60;39.24;;
66463;Laerm;56827;52.178;4.500;2023-07-29T00:31:46;33.39;31.02;35.09;;
66463;Laerm;56827;52.178;4.500;2023-07-29T00:31:57;31.69;30.24;33.43;;
66463;Laerm;56827;52.178;4.500;2023-07-29T00:32:07;33.13;30.36;35.25;;
66463;Laerm;56827;52.178;4.500;2023-07-29T00:32:17;32.73;30.60;35.23;;
66463;Laerm;56827;52.178;4.500;2023-07-29T00:32:29;35.52;32.17;37.62;;
66463;Laerm;56827;52.178;4.500;2023-07-29T00:32:39;30.90;29.27;32.87;;
66463;Laerm;56827;52.178;4.500;2023-07-29T00:32:49;32.60;29.48;36.09;;
66463;Laerm;56827;52.178;4.500;2023-07-29T00:33:00;32.07;29.99;34.41;;
66463;Laerm;56827;52.178;4.500;2023-07-29T00:33:10;31.24;29.88;33.55;;
66463;Laerm;56827;52.178;4.500;2023-07-29T00:33:20;34.97;31.95;37.64;;
66463;Laerm;56827;52.178;4.500;2023-07-29T00:33:30;34.44;31.01;37.40;;
66463;Laerm;56827;52.178;4.500;2023-07-29T00:33:41;31.29;30.00;33.47;;
66463;Laerm;56827;52.178;4.500;2023-07-29T00:33:51;31.81;30.50;34.18;;
66463;Laerm;56827;52.178;4.500;2023-07-29T00:34:02;31.56;29.47;33.84;;
66463;Laerm;56827;52.178;4.500;2023-07-29T00:34:13;30.53;29.19;32.71;;
66463;Laerm;56827;52.178;4.500;2023-07-29T00:34:29;30.72;29.43;32.64;;
66463;Laerm;56827;52.178;4.500;2023-07-29T00:34:40;31.76;29.94;33.84;;
66463;Laerm;56827;52.178;4.500;2023-07-29T00:34:51;32.01;30.42;33.82;;
66463;Laerm;56827;52.178;4.500;2023-07-29T00:35:01;33.53;30.64;36.66;;
66463;Laerm;56827;52.178;4.500;2023-07-29T00:35:11;34.35;32.30;37.65;;
66463;Laerm;56827;52.178;4.500;2023-07-29T00:35:21;34.86;31.57;38.05;;
66463;Laerm;56827;52.178;4.500;2023-07-29T00:35:32;35.28;31.89;39.33;;
66463;Laerm;56827;52.178;4.500;2023-07-29T00:35:42;34.96;32.14;38.82;;
66463;Laerm;56827;52.178;4.500;2023-07-29T00:35:52;34.13;31.09;37.96;;
66463;Laerm;56827;52.178;4.500;2023-07-29T00:36:02;32.68;30.66;38.21;;
66463;Laerm;56827;52.178;4.500;2023-07-29T00:36:13;36.09;32.22;38.37;;
66463;Laerm;56827;52.178;4.500;2023-07-29T00:36:23;36.20;34.71;40.04;;
66463;Laerm;56827;52.178;4.500;2023-07-29T00:36:33;33.33;31.05;36.88;;
66463;Laerm;56827;52.178;4.500;2023-07-29T00:36:43;31.51;29.91;33.40;;
66463;Laerm;56827;52.178;4.500;2023-07-29T00:36:54;31.55;29.83;40.83;;
66463;Laerm;56827;52.178;4.500;2023-07-29T00:37:04;32.71;30.83;36.68;;
66463;Laerm;56827;52.178;4.500;2023-07-29T00:37:15;31.72;30.21;33.92;;
66463;Laerm;56827;52.178;4.500;2023-07-29T00:37:26;31.41;29.72;33.83;;
66463;Laerm;56827;52.178;4.500;2023-07-29T00:37:36;30.90;29.27;33.38;;
66463;Laerm;56827;52.178;4.500;2023-07-29T00:37:47;31.08;29.79;33.52;;
66463;Laerm;56827;52.178;4.500;2023-07-29T00:37:58;31.06;29.58;32.83;;
66463;Laerm;56827;52.178;4.500;2023-07-29T00:38:08;31.18;29.66;33.10;;
66463;Laerm;56827;52.178;4.500;2023-07-29T00:38:18;31.44;30.02;33.35;;
66463;Laerm;56827;52.178;4.500;2023-07-29T00:38:28;31.44;30.35;33.61;;
66463;Laerm;56827;52.178;4.500;2023-07-29T00:38:39;31.43;30.07;33.40;;
66463;Laerm;56827;52.178;4.500;2023-07-29T00:38:49;31.23;29.59;33.40;;
66463;Laerm;56827;52.178;4.500;2023-07-29T00:38:59;31.41;29.65;34.01;;
66463;Laerm;56827;52.178;4.500;2023-07-29T00:39:09;30.78;29.60;32.64;;
66463;Laerm;56827;52.178;4.500;2023-07-29T00:39:19;31.04;30.01;32.89;;
66463;Laerm;56827;52.178;4.500;2023-07-29T00:39:30;32.48;30.62;34.59;;
66463;Laerm;56827;52.178;4.500;2023-07-29T00:39:40;32.82;30.71;35.68;;
66463;Laerm;56827;52.178;4.500;2023-07-29T00:39:50;33.71;31.52;38.38;;
66463;Laerm;56827;52.178;4.500;2023-07-29T00:40:00;36.82;31.54;44.55;;
66463;Laerm;56827;52.178;4.500;2023-07-29T00:40:20;31.57;29.83;34.01;;
66463;Laerm;56827;52.178;4.500;2023-07-29T00:40:31;31.63;30.09;33.88;;
66463;Laerm;56827;52.178;4.500;2023-07-29T00:40:45;31.75;29.94;34.44;;
66463;Laerm;56827;52.178;4.500;2023-07-29T00:40:58;31.55;30.10;34.01;;
66463;Laerm;56827;52.178;4.500;2023-07-29T00:41:10;30.78;29.29;34.23;;
66463;Laerm;56827;52.178;4.500;2023-07-29T00:41:23;30.98;29.46;32.81;;
66463;Laerm;56827;52.178;4.500;2023-07-29T00:41:33;30.88;29.60;33.10;;
66463;Laerm;56827;52.178;4.500;2023-07-29T00:41:44;31.38;29.82;32.89;;
66463;Laerm;56827;52.178;4.500;2023-07-29T00:41:54;31.26;29.88;33.16;;
66463;Laerm;56827;52.178;4.500;2023-07-29T00:42:04;31.45;29.92;36.28;;
66463;Laerm;56827;52.178;4.500;2023-07-29T00:42:15;32.03;30.68;40.49;;
66463;Laerm;56827;52.178;4.500;2023-07-29T00:42:25;34.18;31.24;37.23;;
66463;Laerm;56827;52.178;4.500;2023-07-29T00:42:35;34.66;32.34;38.07;;
66463;Laerm;56827;52.178;4.500;2023-07-29T00:42:45;32.79;31.14;34.61;;
66463;Laerm;56827;52.178;4.500;2023-07-29T00:42:56;31.62;30.32;33.72;;
66463;Laerm;56827;52.178;4.500;2023-07-29T00:43:06;33.56;30.71;43.55;;
66463;Laerm;56827;52.178;4.500;2023-07-29T00:43:16;35.63;33.17;38.60;;
66463;Laerm;56827;52.178;4.500;2023-07-29T00:43:26;34.46;32.95;36.26;;
66463;Laerm;56827;52.178;4.500;2023-07-29T00:43:37;33.04;30.04;35.43;;
66463;Laerm;56827;52.178;4.500;2023-07-29T00:43:47;31.28;30.13;33.42;;
66463;Laerm;56827;52.178;4.500;2023-07-29T00:43:57;31.61;30.18;33.77;;
66463;Laerm;56827;52.178;4.500;2023-07-29T00:44:07;30.84;29.58;33.27;;
66463;Laerm;56827;52.178;4.500;2023-07-29T00:44:18;30.77;29.20;33.59;;
66463;Laerm;56827;52.178;4.500;2023-07-29T00:44:28;32.42;30.35;34.53;;
66463;Laerm;56827;52.178;4.500;2023-07-29T00:44:38;31.58;29.53;34.12;;
66463;Laerm;56827;52.178;4.500;2023-07-29T00:44:48;31.05;29.54;32.71;;
66463;Laerm;56827;52.178;4.500;2023-07-29T00:44:58;31.47;30.01;33.66;;
66463;Laerm;56827;52.178;4.500;2023-07-29T00:45:09;31.67;29.68;33.42;;
66463;Laerm;56827;52.178;4.500;2023-07-29T00:45:19;31.53;29.60;34.70;;
66463;Laerm;56827;52.178;4.500;2023-07-29T00:45:30;38.09;30.49;49.56;;
66463;Laerm;56827;52.178;4.500;2023-07-29T00:45:41;34.88;29.96;46.42;;
66463;Laerm;56827;52.178;4.500;2023-07-29T00:45:53;30.92;29.30;32.96;;
66463;Laerm;56827;52.178;4.500;2023-07-29T00:46:03;30.97;29.64;40.01;;
66463;Laerm;56827;52.178;4.500;2023-07-29T00:46:14;31.02;29.51;37.92;;
66463;Laerm;56827;52.178;4.500;2023-07-29T00:46:25;31.47;29.36;33.85;;
66463;Laerm;56827;52.178;4.500;2023-07-29T00:46:37;32.01;30.40;36.18;;
66463;Laerm;56827;52.178;4.500;2023-07-29T00:46:48;32.90;30.32;36.22;;
66463;Laerm;56827;52.178;4.500;2023-07-29T00:47:00;32.90;30.66;36.53;;
66463;Laerm;56827;52.178;4.500;2023-07-29T00:47:12;32.52;30.12;38.48;;
66463;Laerm;56827;52.178;4.500;2023-07-29T00:47:25;35.38;31.38;39.82;;
66463;Laerm;56827;52.178;4.500;2023-07-29T00:47:35;31.30;29.97;34.19;;
66463;Laerm;56827;52.178;4.500;2023-07-29T00:47:45;31.39;30.02;32.73;;
66463;Laerm;56827;52.178;4.500;2023-07-29T00:47:56;31.51;30.11;33.72;;
66463;Laerm;56827;52.178;4.500;2023-07-29T00:48:06;31.30;29.88;33.68;;
66463;Laerm;56827;52.178;4.500;2023-07-29T00:48:16;31.13;29.57;33.67;;
66463;Laerm;56827;52.178;4.500;2023-07-29T00:48:26;31.70;29.69;34.39;;
66463;Laerm;56827;52.178;4.500;2023-07-29T00:48:37;32.77;30.15;36.24;;
66463;Laerm;56827;52.178;4.500;2023-07-29T00:48:47;30.73;29.43;33.11;;
66463;Laerm;56827;52.178;4.500;2023-07-29T00:48:57;30.62;29.18;33.84;;
66463;Laerm;56827;52.178;4.500;2023-07-29T00:49:08;30.24;28.93;32.20;;
66463;Laerm;56827;52.178;4.500;2023-07-29T00:49:18;30.51;29.32;32.63;;
66463;Laerm;56827;52.178;4.500;2023-07-29T00:49:29;30.82;29.25;33.42;;
66463;Laerm;56827;52.178;4.500;2023-07-29T00:49:39;31.25;29.60;34.35;;
66463;Laerm;56827;52.178;4.500;2023-07-29T00:49:50;30.98;29.55;33.00;;
66463;Laerm;56827;52.178;4.500;2023-07-29T00:50:01;30.99;29.35;33.14;;
66463;Laerm;56827;52.178;4.500;2023-07-29T00:50:12;30.25;29.01;32.92;;
66463;Laerm;56827;52.178;4.500;2023-07-29T00:50:22;30.38;29.25;32.37;;
66463;Laerm;56827;52.178;4.500;2023-07-29T00:50:33;30.34;29.00;33.11;;
66463;Laerm;56827;52.178;4.500;2023-07-29T00:50:43;31.05;29.48;33.48;;
66463;Laerm;56827;52.178;4.500;2023-07-29T00:50:53;30.47;29.20;32.54;;
66463;Laerm;56827;52.178;4.500;2023-07-29T00:51:04;30.94;29.18;38.14;;
66463;Laerm;56827;52.178;4.500;2023-07-29T00:51:14;31.65;29.68;34.50;;
66463;Laerm;56827;52.178;4.500;2023-07-29T00:51:24;31.84;30.19;33.82;;
66463;Laerm;56827;52.178;4.500;2023-07-29T00:51:35;31.43;29.72;34.20;;
66463;Laerm;56827;52.178;4.500;2023-07-29T00:51:45;33.73;31.57;40.22;;
66463;Laerm;56827;52.178;4.500;2023-07-29T00:51:55;31.23;29.72;33.75;;
66463;Laerm;56827;52.178;4.500;2023-07-29T00:52:05;31.57;30.27;33.77;;
66463;Laerm;56827;52.178;4.500;2023-07-29T00:52:16;31.85;30.17;37.51;;
66463;Laerm;56827;52.178;4.500;2023-07-29T00:52:26;33.34;30.74;37.33;;
66463;Laerm;56827;52.178;4.500;2023-07-29T00:52:37;37.84;32.61;42.23;;
66463;Laerm;56827;52.178;4.500;2023-07-29T00:52:47;31.66;30.10;34.57;;
66463;Laerm;56827;52.178;4.500;2023-07-29T00:52:58;31.88;30.27;36.17;;
66463;Laerm;56827;52.178;4.500;2023-07-29T00:53:08;34.64;31.43;44.14;;
66463;Laerm;56827;52.178;4.500;2023-07-29T00:53:18;32.17;30.66;34.08;;
66463;Laerm;56827;52.178;4.500;2023-07-29T00:53:29;35.20;31.71;39.61;;
66463;Laerm;56827;52.178;4.500;2023-07-29T00:53:39;32.91;30.94;43.74;;
66463;Laerm;56827;52.178;4.500;2023-07-29T00:53:49;31.85;30.46;33.88;;
66463;Laerm;56827;52.178;4.500;2023-07-29T00:53:59;31.06;29.54;33.02;;
66463;Laerm;56827;52.178;4.500;2023-07-29T00:54:09;31.37;29.84;33.38;;
66463;Laerm;56827;52.178;4.500;2023-07-29T00:54:20;30.95;29.59;33.38;;
66463;Laerm;56827;52.178;4.500;2023-07-29T00:54:30;31.47;29.59;33.88;;
66463;Laerm;56827;52.178;4.500;2023-07-29T00:54:40;33.38;29.63;38.27;;
66463;Laerm;56827;52.178;4.500;2023-07-29T00:54:51;30.61;29.00;32.68;;
66463;Laerm;56827;52.178;4.500;2023-07-29T00:55:01;30.71;29.28;32.78;;
66463;Laerm;56827;52.178;4.500;2023-07-29T00:55:11;30.49;29.22;32.87;;
66463;Laerm;56827;52.178;4.500;2023-07-29T00:55:22;30.45;28.73;32.20;;
66463;Laerm;56827;52.178;4.500;2023-07-29T00:55:32;30.35;28.93;32.48;;
66463;Laerm;56827;52.178;4.500;2023-07-29T00:55:42;30.49;29.18;32.65;;
66463;Laerm;56827;52.178;4.500;2023-07-29T00:55:53;30.33;28.63;32.76;;
66463;Laerm;56827;52.178;4.500;2023-07-29T00:56:03;30.00;28.82;31.87;;
66463;Laerm;56827;52.178;4.500;2023-07-29T00:56:13;30.14;28.97;32.11;;
66463;Laerm;56827;52.178;4.500;2023-07-29T00:56:24;30.48;29.01;33.24;;
66463;Laerm;56827;52.178;4.500;2023-07-29T00:56:34;30.56;29.23;32.40;;
66463;Laerm;56827;52.178;4.500;2023-07-29T00:56:45;37.02;29.24;49.96;;
66463;Laerm;56827;52.178;4.500;2023-07-29T00:56:55;30.31;29.07;31.71;;
66463;Laerm;56827;52.178;4.500;2023-07-29T00:57:06;30.48;29.12;32.48;;
66463;Laerm;56827;52.178;4.500;2023-07-29T00:57:18;30.49;29.38;33.20;;
66463;Laerm;56827;52.178;4.500;2023-07-29T00:57:29;30.39;29.38;32.23;;
66463;Laerm;56827;52.178;4.500;2023-07-29T00:57:39;30.57;29.24;33.27;;
66463;Laerm;56827;52.178;4.500;2023-07-29T00:57:53;31.79;29.55;37.68;;
66463;Laerm;56827;52.178;4.500;2023-07-29T00:58:04;34.03;29.80;44.01;;
66463;Laerm;56827;52.178;4.500;2023-07-29T00:58:14;34.43;30.84;45.78;;
66463;Laerm;56827;52.178;4.500;2023-07-29T00:58:25;31.88;30.40;36.53;;
66463;Laerm;56827;52.178;4.500;2023-07-29T00:58:35;32.41;30.60;39.65;;
66463;Laerm;56827;52.178;4.500;2023-07-29T00:58:45;35.43;31.15;41.58;;